Terminal Aerodrome Forecast
Issued by NWS St Louis, MO

Home | Current Version | Previous Version | Text Only | Print | Product List | Glossary On
Versions: 1 2 3 4 5 6 7 8 9 10 11 12 13 14 15 16 17 18 19 20 21 22 23 24 25 26 27 28 29
968
FTUS43 KLSX 150910 AAA
TAFSTL
TAF AMD
KSTL 150910Z 1509/1612 18010KT 6SM -SHRA VCTS OVC020CB
      TEMPO 1510/1514 3SM SHRA OVC018
     FM151400 23012G18KT P6SM OVC010
     FM151800 30012G20KT P6SM OVC012
     FM152100 31012KT P6SM SCT020
     FM160000 32006KT P6SM SKC=

USA.gov is the U.S. government's official web portal to all federal, state and local government web resources and services.